West Leroy, Pennsylvania
Current Conditions -  °F | °C
As of 9:35 AM on Thursday 27 Nov 2014 (Local Time) from KN38 Reporting Station
NA  
Wind Chill: 21°   Ceiling: NA
Heat Index: 27°   Visibility: 10mi
Dew Point: 21°   Wind: 5mph
Humidity: 80%   Direction: 300°WNW
Pressure: 29.99"   Gusts: NA
Location:  41.669°N, 76.8999°W
Report Text: KN38 271435Z AUTO 30004KT 10SM M03/M06 A2999 RMK AO2
Loading
Personal Weather Stations






























Interactive Weather Map New forecast layout! Learn more

10-Day Weather Forecast

Advertisements
Track Severe Weather on mobile